Camellia — VRCP9 — position and weather

sailwx.info

Track history (hours):
 
Tides and Currents Weather Stations Pressure Air Temp Water Temp Dewpoint Dewpoint Depression Visibility Wind Speed Wind Dir Waves Ship Positions

Camellia

Last reported at 2015-Jan-30 19:33 UTC. Time now 2015-Feb-01 07:09 UTC.
Position N 41°29' E 029°12'.

Length 222 m; draft 7.5 m.

Type: Ship (hazmat cat C). MMSI: 477791900.

Date/timePositionNaut miles runAvg speedWind from/ knotsBaromVisibWave heightAir tempDewpointWater temp
2015-Jan-30 19:33N 41°29' E 029°12'2812.6
2015-Jan-30 17:18N 41°02' E 029°00'3 4.0
2015-Jan-30 16:31N 40°59' E 028°58'0 0.0
2015-Jan-30 15:34N 40°59' E 028°58'0 0.0
2015-Jan-30 14:26N 40°59' E 028°58'0 0.0
2015-Jan-30 13:32N 40°59' E 028°58'0 0.0
2015-Jan-30 12:32N 40°59' E 028°58'0 0.0
2015-Jan-30 11:33N 40°59' E 028°58'0 0.0
2015-Jan-30 10:30N 40°59' E 028°58'1 1.4
2015-Jan-30 09:34N 40°60' E 028°59'1 0.9
2015-Jan-30 08:15N 41°00' E 029°00'0 0.0
2015-Jan-30 07:25N 41°00' E 029°00'0 0.0
2015-Jan-30 06:25N 41°00' E 029°00'0 0.0
2015-Jan-30 04:11N 41°00' E 029°00'0 0.0
2015-Jan-30 03:34N 41°00' E 029°00'0 0.0
2015-Jan-30 02:32N 41°00' E 029°00'0 0.0
2015-Jan-30 01:33N 41°00' E 029°00'0 0.0
2015-Jan-29 23:19N 41°00' E 029°00'0 0.0
2015-Jan-29 21:24N 41°00' E 029°00'0 0.0
2015-Jan-29 19:30N 41°00' E 029°00'3 2.8
2015-Jan-29 18:33N 40°58' E 028°59'1514.4
2015-Jan-29 17:32N 40°52' E 028°41'5 0.7
2015-Jan-29 10:31N 40°57' E 028°41'7 7.0
2015-Jan-29 09:33N 40°50' E 028°42'4 3.6
2015-Jan-29 08:33N 40°47' E 028°44'2 1.9
2015-Jan-29 07:29N 40°49' E 028°44'3 2.8
2015-Jan-29 06:33N 40°47' E 028°43'1 0.8
2015-Jan-29 05:33N 40°47' E 028°44'2 1.6
2015-Jan-29 04:32N 40°45' E 028°44'1 0.8
2015-Jan-29 03:33N 40°46' E 028°44'1 0.7
2015-Jan-29 02:33N 40°47' E 028°44'1 0.8
2015-Jan-29 01:32N 40°46' E 028°44'1 0.6
2015-Jan-29 00:33N 40°46' E 028°45'1 0.9
2015-Jan-28 23:33N 40°47' E 028°45'1 0.9
2015-Jan-28 22:33N 40°47' E 028°46'1111.4
2015-Jan-28 21:33N 40°44' E 029°01'1312.4
2015-Jan-28 20:33N 40°45' E 029°17'11 9.9
2015-Jan-28 19:25N 40°46' E 029°32'0 0.0
2015-Jan-28 13:09N 40°46' E 029°32'5 7.6
2015-Jan-28 12:33N 40°44' E 029°27'1414.5
2015-Jan-28 11:33N 40°44' E 029°08'2020.2
2015-Jan-28 10:33N 40°35' E 028°43'138 7.1
2015-Jan-27 15:06N 39°52' E 025°52'1211.8
2015-Jan-27 14:06N 39°41' E 025°45'19 6.4
2015-Jan-27 11:12N 39°25' E 025°33'  
2015-Jan-22 09:31N 35°59' W 005°06'1616.4
2015-Jan-22 08:33N 35°58' W 005°25'248 9.9
2015-Jan-21 07:30N 38°02' W 009°55'1920.2
2015-Jan-21 06:33N 38°20' W 009°59'2420.0
2015-Jan-21 05:22N 38°43' W 010°06'1720.3
2015-Jan-21 04:32N 39°00' W 010°05'  
Track history (hours):
 
Tides and Currents Weather Stations Pressure Air Temp Water Temp Dewpoint Dewpoint Depression Visibility Wind Speed Wind Dir Waves Ship Positions

Camellia

Last reported at 2015-Jan-30 19:33 UTC. Time now 2015-Feb-01 07:09 UTC.
Position N 41°29' E 029°12'.

Length 222 m; draft 7.5 m.

Type: Ship (hazmat cat C). MMSI: 477791900.

Date/timePositionNaut miles runAvg speedWind from/ knotsBaromVisibWave heightAir tempDewpointWater temp
2015-Jan-30 19:33N 41°29' E 029°12'2812.6
2015-Jan-30 17:18N 41°02' E 029°00'3 4.0
2015-Jan-30 16:31N 40°59' E 028°58'0 0.0
2015-Jan-30 15:34N 40°59' E 028°58'0 0.0
2015-Jan-30 14:26N 40°59' E 028°58'0 0.0
2015-Jan-30 13:32N 40°59' E 028°58'0 0.0
2015-Jan-30 12:32N 40°59' E 028°58'0 0.0
2015-Jan-30 11:33N 40°59' E 028°58'0 0.0
2015-Jan-30 10:30N 40°59' E 028°58'1 1.4
2015-Jan-30 09:34N 40°60' E 028°59'1 0.9
2015-Jan-30 08:15N 41°00' E 029°00'0 0.0
2015-Jan-30 07:25N 41°00' E 029°00'0 0.0
2015-Jan-30 06:25N 41°00' E 029°00'0 0.0
2015-Jan-30 04:11N 41°00' E 029°00'0 0.0
2015-Jan-30 03:34N 41°00' E 029°00'0 0.0
2015-Jan-30 02:32N 41°00' E 029°00'0 0.0
2015-Jan-30 01:33N 41°00' E 029°00'0 0.0
2015-Jan-29 23:19N 41°00' E 029°00'0 0.0
2015-Jan-29 21:24N 41°00' E 029°00'0 0.0
2015-Jan-29 19:30N 41°00' E 029°00'3 2.8
2015-Jan-29 18:33N 40°58' E 028°59'1514.4
2015-Jan-29 17:32N 40°52' E 028°41'5 0.7
2015-Jan-29 10:31N 40°57' E 028°41'7 7.0
2015-Jan-29 09:33N 40°50' E 028°42'4 3.6
2015-Jan-29 08:33N 40°47' E 028°44'2 1.9
2015-Jan-29 07:29N 40°49' E 028°44'3 2.8
2015-Jan-29 06:33N 40°47' E 028°43'1 0.8
2015-Jan-29 05:33N 40°47' E 028°44'2 1.6
2015-Jan-29 04:32N 40°45' E 028°44'1 0.8
2015-Jan-29 03:33N 40°46' E 028°44'1 0.7
2015-Jan-29 02:33N 40°47' E 028°44'1 0.8
2015-Jan-29 01:32N 40°46' E 028°44'1 0.6
2015-Jan-29 00:33N 40°46' E 028°45'1 0.9
2015-Jan-28 23:33N 40°47' E 028°45'1 0.9
2015-Jan-28 22:33N 40°47' E 028°46'1111.4
2015-Jan-28 21:33N 40°44' E 029°01'1312.4
2015-Jan-28 20:33N 40°45' E 029°17'11 9.9
2015-Jan-28 19:25N 40°46' E 029°32'0 0.0
2015-Jan-28 13:09N 40°46' E 029°32'5 7.6
2015-Jan-28 12:33N 40°44' E 029°27'1414.5
2015-Jan-28 11:33N 40°44' E 029°08'2020.2
2015-Jan-28 10:33N 40°35' E 028°43'138 7.1
2015-Jan-27 15:06N 39°52' E 025°52'1211.8
2015-Jan-27 14:06N 39°41' E 025°45'19 6.4
2015-Jan-27 11:12N 39°25' E 025°33'  
2015-Jan-22 09:31N 35°59' W 005°06'1616.4
2015-Jan-22 08:33N 35°58' W 005°25'248 9.9
2015-Jan-21 07:30N 38°02' W 009°55'1920.2
2015-Jan-21 06:33N 38°20' W 009°59'2420.0
2015-Jan-21 05:22N 38°43' W 010°06'1720.3
2015-Jan-21 04:32N 39°00' W 010°05'  

Dump ship's entire track history